createdAt,value
2023-04-09T00:02:21.981Z,71.40
2023-04-09T00:04:52.413Z,71.50
2023-04-09T00:07:23.665Z,71.30
2023-04-09T00:09:55.258Z,71.50
2023-04-09T00:12:26.610Z,71.30
2023-04-09T00:14:57.927Z,71.20
2023-04-09T00:17:29.357Z,71.20
2023-04-09T00:19:59.811Z,71.30
2023-04-09T00:22:27.462Z,71.20
2023-04-09T00:24:56.600Z,71.10
2023-04-09T00:27:29.504Z,71.20
2023-04-09T00:30:00.341Z,71.00
2023-04-09T00:32:28.338Z,70.90
2023-04-09T00:34:59.027Z,70.90
2023-04-09T00:37:30.597Z,70.80
2023-04-09T00:40:00.358Z,70.90
2023-04-09T00:42:32.566Z,70.80
2023-04-09T00:44:59.870Z,70.80
2023-04-09T00:47:29.422Z,70.70
2023-04-09T00:50:03.156Z,70.80
2023-04-09T00:52:35.088Z,70.60
2023-04-09T00:55:09.428Z,70.60
2023-04-09T00:57:42.642Z,70.60
2023-04-09T01:00:13.343Z,70.70
2023-04-09T01:02:47.953Z,70.70
2023-04-09T01:05:15.907Z,70.70
2023-04-09T01:08:15.746Z,70.50
2023-04-09T01:11:19.085Z,70.50
2023-04-09T01:14:15.410Z,70.60
2023-04-09T01:19:55.490Z,70.50
2023-04-09T01:22:52.918Z,70.60
2023-04-09T01:26:19.187Z,70.50
2023-04-09T01:31:43.000Z,70.40
2023-04-09T01:34:15.337Z,70.40
2023-04-09T01:37:05.557Z,70.50
2023-04-09T01:39:57.714Z,70.50
2023-04-09T01:42:29.512Z,71.00
2023-04-09T01:45:00.989Z,70.40
2023-04-09T01:47:32.397Z,70.40
2023-04-09T01:50:04.205Z,70.40
2023-04-09T01:55:18.004Z,70.40
2023-04-09T01:57:46.626Z,70.20
2023-04-09T02:00:21.610Z,70.30
2023-04-09T02:03:33.398Z,70.30
2023-04-09T02:06:18.842Z,70.20
2023-04-09T02:08:55.478Z,70.30
2023-04-09T02:11:30.068Z,70.10
2023-04-09T02:14:00.830Z,70.20
2023-04-09T02:16:38.634Z,70.20
2023-04-09T02:19:10.214Z,70.20
2023-04-09T02:21:40.224Z,70.10
2023-04-09T02:24:10.224Z,70.10
2023-04-09T02:26:40.134Z,70.10
2023-04-09T02:29:10.940Z,70.10
2023-04-09T02:31:42.504Z,70.00
2023-04-09T02:34:16.321Z,70.00
2023-04-09T02:36:48.867Z,70.00
2023-04-09T02:39:16.203Z,70.00
2023-04-09T02:41:46.843Z,69.90
2023-04-09T02:44:16.757Z,70.00
2023-04-09T02:46:49.670Z,69.90
2023-04-09T02:49:19.632Z,69.90
2023-04-09T02:51:47.819Z,70.00
2023-04-09T02:54:19.074Z,70.00
2023-04-09T02:56:50.431Z,70.10
2023-04-09T02:59:19.190Z,69.90
2023-04-09T03:01:52.414Z,69.90
2023-04-09T03:04:24.409Z,69.90
2023-04-09T03:06:52.420Z,69.80
2023-04-09T03:09:23.290Z,69.80
2023-04-09T03:11:53.477Z,69.80
2023-04-09T03:14:24.599Z,69.80
2023-04-09T03:16:57.654Z,69.80
2023-04-09T03:19:27.694Z,69.60
2023-04-09T03:21:59.738Z,69.70
2023-04-09T03:24:28.174Z,69.80
2023-04-09T03:27:01.165Z,69.70
2023-04-09T03:29:33.688Z,69.70
2023-04-09T03:32:01.806Z,69.60
2023-04-09T03:34:30.926Z,69.70
2023-04-09T03:37:02.633Z,69.60
2023-04-09T03:39:33.981Z,69.60
2023-04-09T03:42:04.851Z,69.70
2023-04-09T03:44:33.242Z,69.60
2023-04-09T03:47:06.643Z,69.60
2023-04-09T03:49:40.894Z,69.60
2023-04-09T03:52:11.904Z,69.40
2023-04-09T03:54:42.303Z,69.60
2023-04-09T03:57:13.890Z,69.50
2023-04-09T03:59:43.195Z,69.40
2023-04-09T04:02:14.462Z,69.50
2023-04-09T04:04:46.862Z,69.40
2023-04-09T04:10:11.848Z,69.40
2023-04-09T04:12:42.177Z,69.30
2023-04-09T04:15:11.644Z,69.30
2023-04-09T04:17:46.554Z,69.30
2023-04-09T04:20:22.618Z,69.30
2023-04-09T04:22:53.931Z,69.30
2023-04-09T04:25:30.156Z,69.30
2023-04-09T04:28:01.283Z,69.10
2023-04-09T04:30:30.773Z,69.20
2023-04-09T04:33:01.153Z,69.10
2023-04-09T04:35:33.107Z,69.00
2023-04-09T04:38:03.933Z,69.10
2023-04-09T04:40:33.940Z,69.00
2023-04-09T04:43:03.850Z,68.90
2023-04-09T04:45:33.203Z,68.90
2023-04-09T04:48:02.634Z,68.80
2023-04-09T04:50:29.354Z,68.80
2023-04-09T04:52:58.136Z,68.80
2023-04-09T04:55:28.805Z,68.80
2023-04-09T04:58:00.109Z,68.70
2023-04-09T05:00:28.674Z,68.60
2023-04-09T05:03:00.247Z,68.50
2023-04-09T05:05:30.415Z,68.40
2023-04-09T05:08:00.577Z,68.40
2023-04-09T05:10:28.399Z,68.30
2023-04-09T05:12:56.422Z,68.20
2023-04-09T05:18:10.779Z,68.20
2023-04-09T05:20:42.622Z,68.00
2023-04-09T05:23:14.770Z,68.00
2023-04-09T05:25:41.479Z,68.00
2023-04-09T05:28:16.839Z,67.80
2023-04-09T05:30:50.488Z,67.90
2023-04-09T05:33:19.711Z,67.90
2023-04-09T05:35:50.273Z,67.90
2023-04-09T05:38:20.442Z,67.80
2023-04-09T05:40:51.662Z,67.80
2023-04-09T05:43:21.666Z,67.70
2023-04-09T05:45:53.376Z,67.80
2023-04-09T05:48:24.520Z,67.70
2023-04-09T05:50:55.971Z,67.60
2023-04-09T05:53:35.001Z,67.60
2023-04-09T05:56:01.961Z,67.50
2023-04-09T05:58:32.999Z,67.50
2023-04-09T06:01:03.578Z,67.60
2023-04-09T06:03:34.043Z,67.50
2023-04-09T06:06:03.474Z,67.50
2023-04-09T06:08:33.620Z,67.40
2023-04-09T06:11:06.445Z,67.30
2023-04-09T06:13:36.927Z,67.80
2023-04-09T06:16:12.484Z,67.10
2023-04-09T06:18:44.830Z,67.20
2023-04-09T06:21:15.987Z,67.10
2023-04-09T06:23:54.281Z,67.00
2023-04-09T06:26:29.581Z,66.90
2023-04-09T06:29:00.133Z,66.70
2023-04-09T06:31:41.189Z,66.80
2023-04-09T06:34:20.407Z,66.70
2023-04-09T06:36:51.118Z,66.60
2023-04-09T06:39:22.959Z,66.50
2023-04-09T06:41:55.958Z,66.50
2023-04-09T06:44:31.778Z,66.40
2023-04-09T06:47:00.206Z,66.40
2023-04-09T06:49:30.506Z,66.40
2023-04-09T06:52:00.312Z,66.30
2023-04-09T06:54:31.057Z,66.20
2023-04-09T06:57:04.359Z,66.20
2023-04-09T06:59:38.169Z,66.30
2023-04-09T07:02:10.185Z,66.20
2023-04-09T07:04:40.794Z,66.10
2023-04-09T07:07:10.842Z,66.10
2023-04-09T07:09:42.336Z,66.10
2023-04-09T07:12:13.700Z,66.00
2023-04-09T07:14:44.496Z,66.00
2023-04-09T07:17:16.239Z,66.00
2023-04-09T07:19:48.343Z,65.90
2023-04-09T07:22:16.712Z,65.90
2023-04-09T07:24:49.904Z,65.90
2023-04-09T07:27:20.377Z,66.00
2023-04-09T07:29:48.667Z,65.90
2023-04-09T07:32:19.752Z,65.90
2023-04-09T07:34:53.240Z,65.70
2023-04-09T07:37:27.016Z,65.50
2023-04-09T07:39:56.958Z,65.70
2023-04-09T07:42:25.708Z,65.70
2023-04-09T07:44:57.689Z,65.80
2023-04-09T07:50:14.436Z,66.00
2023-04-09T07:52:46.712Z,66.10
2023-04-09T07:55:18.719Z,66.20
2023-04-09T07:57:49.767Z,66.50
2023-04-09T08:00:21.597Z,66.50
2023-04-09T08:02:49.932Z,66.60
2023-04-09T08:05:20.301Z,66.50
2023-04-09T08:07:53.138Z,66.90
2023-04-09T08:10:21.967Z,66.50
2023-04-09T08:12:55.495Z,66.50
2023-04-09T08:15:25.913Z,66.70
2023-04-09T08:17:56.773Z,66.50
2023-04-09T08:20:27.592Z,66.20
2023-04-09T08:25:43.743Z,66.00
2023-04-09T08:28:16.480Z,65.80
2023-04-09T08:30:47.015Z,65.80
2023-04-09T08:33:14.915Z,65.70
2023-04-09T08:35:46.602Z,65.70
2023-04-09T08:38:18.543Z,65.50
2023-04-09T08:40:46.872Z,65.30
2023-04-09T08:43:21.285Z,65.30
2023-04-09T08:45:54.477Z,65.30
2023-04-09T08:48:26.458Z,65.20
2023-04-09T08:50:59.806Z,65.20
2023-04-09T08:53:32.015Z,65.00
2023-04-09T08:56:03.893Z,65.10
2023-04-09T09:01:29.034Z,65.00
2023-04-09T09:04:11.774Z,65.00
2023-04-09T09:06:46.058Z,65.00
2023-04-09T09:09:21.437Z,64.90
2023-04-09T09:11:56.166Z,64.70
2023-04-09T09:14:27.943Z,64.90
2023-04-09T09:17:06.499Z,64.90
2023-04-09T09:19:36.585Z,64.70
2023-04-09T09:22:08.365Z,64.60
2023-04-09T09:24:55.688Z,64.50
2023-04-09T09:27:41.961Z,64.60
2023-04-09T09:30:22.739Z,64.60
2023-04-09T09:33:15.650Z,64.40
2023-04-09T09:35:59.953Z,64.30
2023-04-09T09:38:31.345Z,64.50
2023-04-09T09:41:18.426Z,64.40
2023-04-09T09:43:49.081Z,64.30
2023-04-09T09:46:19.930Z,64.30
2023-04-09T09:48:52.376Z,64.30
2023-04-09T09:51:26.889Z,64.10
2023-04-09T09:54:16.747Z,64.10
2023-04-09T09:56:49.453Z,64.20
2023-04-09T09:59:29.017Z,64.20
2023-04-09T10:02:22.155Z,64.00
2023-04-09T10:05:00.782Z,63.90
2023-04-09T10:07:52.253Z,63.90
2023-04-09T10:10:25.550Z,64.00
2023-04-09T10:12:57.004Z,63.90
2023-04-09T10:15:27.048Z,63.80
2023-04-09T10:17:56.145Z,63.90
2023-04-09T10:20:34.934Z,63.90
2023-04-09T10:23:12.087Z,64.00
2023-04-09T10:25:46.276Z,63.90
2023-04-09T10:28:21.188Z,64.10
2023-04-09T10:30:51.648Z,64.10
2023-04-09T10:33:27.595Z,63.70
2023-04-09T10:36:14.688Z,63.80
2023-04-09T10:38:49.838Z,63.70
2023-04-09T10:44:29.368Z,63.60
2023-04-09T10:47:01.179Z,63.80
2023-04-09T10:49:40.796Z,63.70
2023-04-09T10:52:15.456Z,63.70
2023-04-09T10:55:02.326Z,63.70
2023-04-09T10:57:35.527Z,63.80
2023-04-09T11:03:24.027Z,63.90
2023-04-09T11:06:12.898Z,64.00
2023-04-09T11:08:45.127Z,63.70
2023-04-09T11:11:16.405Z,63.40
2023-04-09T11:13:47.154Z,63.10
2023-04-09T11:16:24.065Z,62.60
2023-04-09T11:19:02.000Z,62.90
2023-04-09T11:24:23.940Z,62.90
2023-04-09T11:26:52.324Z,63.00
2023-04-09T11:29:28.042Z,63.50
2023-04-09T11:31:58.276Z,63.30
2023-04-09T11:34:32.354Z,63.40
2023-04-09T11:37:04.803Z,63.20
2023-04-09T11:39:38.702Z,63.20
2023-04-09T11:42:09.340Z,63.30
2023-04-09T11:44:37.617Z,63.30
2023-04-09T11:47:08.109Z,62.90
2023-04-09T11:49:42.442Z,63.00
2023-04-09T11:52:10.830Z,63.10
2023-04-09T11:54:39.693Z,63.00
2023-04-09T11:57:16.663Z,62.90
2023-04-09T11:59:48.805Z,63.00
2023-04-09T12:02:21.965Z,63.00
2023-04-09T12:05:00.016Z,63.30
2023-04-09T12:07:44.216Z,63.40
2023-04-09T12:10:23.662Z,63.50
2023-04-09T12:12:55.113Z,63.80
2023-04-09T12:15:26.805Z,63.60
2023-04-09T12:18:01.278Z,63.70
2023-04-09T12:20:40.987Z,63.50
2023-04-09T12:23:12.393Z,63.40
2023-04-09T12:25:46.996Z,63.90
2023-04-09T12:28:19.142Z,63.30
2023-04-09T12:30:51.004Z,63.30
2023-04-09T12:33:22.945Z,63.40
2023-04-09T12:35:52.183Z,63.50
2023-04-09T12:38:24.906Z,63.70
2023-04-09T12:40:56.086Z,63.60
2023-04-09T12:43:26.773Z,63.60
2023-04-09T12:45:58.657Z,63.60
2023-04-09T12:48:27.866Z,63.70
2023-04-09T12:50:57.477Z,63.70
2023-04-09T12:53:26.873Z,63.60
2023-04-09T12:55:56.854Z,63.70
2023-04-09T12:58:25.648Z,63.60
2023-04-09T13:00:55.637Z,63.60
2023-04-09T13:03:27.531Z,63.60
2023-04-09T13:06:01.096Z,63.70
2023-04-09T13:08:30.965Z,63.70
2023-04-09T13:11:03.184Z,63.70
2023-04-09T13:13:35.356Z,63.60
2023-04-09T13:16:06.866Z,63.60
2023-04-09T13:18:37.633Z,63.60
2023-04-09T13:21:07.855Z,63.70
2023-04-09T13:23:38.023Z,63.70
2023-04-09T13:26:06.791Z,63.60
2023-04-09T13:28:38.826Z,63.60
2023-04-09T13:31:10.404Z,63.50
2023-04-09T13:33:43.586Z,63.30
2023-04-09T13:36:12.890Z,63.60
2023-04-09T13:38:45.802Z,63.50
2023-04-09T13:41:18.383Z,63.40
2023-04-09T13:43:51.574Z,64.10
2023-04-09T13:46:24.137Z,63.40
2023-04-09T13:48:57.426Z,63.50
2023-04-09T13:51:33.274Z,63.60
2023-04-09T13:54:05.897Z,63.50
2023-04-09T13:56:38.252Z,63.70
2023-04-09T13:59:10.150Z,63.60
2023-04-09T14:01:41.652Z,63.70
2023-04-09T14:04:15.637Z,63.60
2023-04-09T14:06:44.096Z,63.70
2023-04-09T14:09:17.863Z,63.70
2023-04-09T14:11:47.368Z,63.70
2023-04-09T14:14:17.999Z,63.90
2023-04-09T14:16:47.073Z,63.90
2023-04-09T14:19:17.517Z,63.80
2023-04-09T14:21:52.251Z,63.70
2023-04-09T14:24:30.620Z,63.80
2023-04-09T14:27:01.733Z,63.70
2023-04-09T14:29:34.684Z,63.80
2023-04-09T14:32:05.813Z,63.80
2023-04-09T14:34:36.643Z,64.40
2023-04-09T14:37:09.647Z,63.70
2023-04-09T14:39:39.510Z,63.60
2023-04-09T14:42:11.169Z,63.60
2023-04-09T14:44:41.461Z,64.10
2023-04-09T14:47:11.136Z,63.50
2023-04-09T14:49:39.285Z,63.40
2023-04-09T14:52:09.232Z,63.50
2023-04-09T14:54:40.869Z,63.40
2023-04-09T14:57:12.368Z,63.50
2023-04-09T14:59:44.210Z,63.40
2023-04-09T15:02:17.162Z,63.40
2023-04-09T15:04:47.373Z,63.30
2023-04-09T15:10:05.544Z,63.30
2023-04-09T15:12:36.983Z,63.50
2023-04-09T15:15:12.718Z,63.30
2023-04-09T15:17:39.637Z,63.30
2023-04-09T15:20:12.116Z,63.40
2023-04-09T15:22:47.928Z,63.30
2023-04-09T15:25:16.951Z,63.30
2023-04-09T15:30:44.465Z,63.50
2023-04-09T15:33:15.183Z,63.40
2023-04-09T15:35:45.363Z,63.30
2023-04-09T15:38:14.856Z,63.20
2023-04-09T15:40:42.841Z,63.20
2023-04-09T15:43:14.054Z,63.30
2023-04-09T15:48:34.671Z,63.10
2023-04-09T15:51:10.616Z,63.10
2023-04-09T15:53:41.638Z,63.20
2023-04-09T15:56:13.963Z,63.20
2023-04-09T15:58:45.329Z,63.10
2023-04-09T16:01:17.616Z,63.30
2023-04-09T16:03:57.330Z,63.20
2023-04-09T16:06:27.575Z,63.20
2023-04-09T16:08:58.955Z,63.30
2023-04-09T16:11:30.589Z,63.30
2023-04-09T16:13:59.936Z,63.30
2023-04-09T16:16:28.118Z,63.60
2023-04-09T16:18:58.042Z,63.60
2023-04-09T16:21:30.878Z,63.40
2023-04-09T16:24:14.124Z,63.40
2023-04-09T16:26:43.288Z,63.30
2023-04-09T16:29:14.471Z,63.40
2023-04-09T16:31:48.997Z,63.70
2023-04-09T16:34:22.254Z,63.90
2023-04-09T16:36:54.528Z,64.00
2023-04-09T16:39:25.961Z,63.90
2023-04-09T16:41:57.344Z,63.80
2023-04-09T16:44:28.173Z,63.80
2023-04-09T16:47:01.983Z,63.70
2023-04-09T16:49:32.163Z,63.80
2023-04-09T16:52:01.732Z,63.80
2023-04-09T16:54:33.531Z,63.70
2023-04-09T16:57:05.008Z,63.60
2023-04-09T16:59:36.258Z,63.50
2023-04-09T17:02:06.633Z,63.50
2023-04-09T17:04:39.737Z,63.50
2023-04-09T17:07:10.626Z,63.50
2023-04-09T17:09:42.089Z,63.60
2023-04-09T17:12:13.779Z,63.60
2023-04-09T17:14:47.294Z,63.90
2023-04-09T17:17:32.163Z,63.90
2023-04-09T17:20:04.430Z,63.80
2023-04-09T17:22:31.804Z,63.90
2023-04-09T17:25:07.154Z,64.00
2023-04-09T17:27:37.228Z,64.00
2023-04-09T17:30:05.950Z,63.90
2023-04-09T17:32:37.622Z,63.70
2023-04-09T17:35:10.857Z,63.80
2023-04-09T17:37:42.024Z,63.70
2023-04-09T17:40:13.445Z,63.80
2023-04-09T17:42:44.565Z,63.70
2023-04-09T17:45:12.054Z,63.70
2023-04-09T17:47:42.943Z,63.80
2023-04-09T17:50:14.598Z,63.90
2023-04-09T17:52:43.621Z,63.90
2023-04-09T17:55:15.734Z,63.80
2023-04-09T18:03:20.597Z,63.70
2023-04-09T18:05:52.265Z,63.80
2023-04-09T18:08:19.878Z,63.90
2023-04-09T18:11:11.845Z,63.90
2023-04-09T18:13:43.610Z,64.20
2023-04-09T18:16:16.721Z,64.80
2023-04-09T18:18:48.923Z,65.10
2023-04-09T18:21:16.549Z,65.60
2023-04-09T18:23:48.764Z,66.00
2023-04-09T18:26:18.701Z,66.20
2023-04-09T18:28:50.614Z,66.50
2023-04-09T18:31:23.870Z,67.70
2023-04-09T18:33:52.399Z,67.30
2023-04-09T18:36:22.610Z,67.60
2023-04-09T18:38:55.080Z,67.80
2023-04-09T18:41:25.584Z,68.00
2023-04-09T18:43:57.785Z,68.10
2023-04-09T18:49:10.479Z,68.30
2023-04-09T18:51:42.401Z,68.40
2023-04-09T18:54:12.750Z,68.40
2023-04-09T18:56:45.375Z,68.40
2023-04-09T18:59:15.319Z,68.40
2023-04-09T19:01:43.760Z,68.40
2023-04-09T19:04:12.141Z,68.30
2023-04-09T19:06:43.647Z,68.30
2023-04-09T19:09:13.933Z,68.20
2023-04-09T19:11:44.813Z,68.00
2023-04-09T19:14:12.711Z,68.00
2023-04-09T19:16:41.360Z,67.90
2023-04-09T19:19:14.212Z,67.80
2023-04-09T19:21:45.459Z,67.70
2023-04-09T19:29:43.325Z,67.30
2023-04-09T19:32:26.336Z,67.10
2023-04-09T19:34:56.743Z,67.10
2023-04-09T19:37:41.604Z,67.00
2023-04-09T19:40:19.631Z,67.30
2023-04-09T19:42:48.906Z,67.40
2023-04-09T19:45:20.768Z,67.80
2023-04-09T19:47:55.884Z,68.60
2023-04-09T19:50:26.238Z,69.10
2023-04-09T19:52:58.988Z,68.80
2023-04-09T19:55:30.514Z,68.80
2023-04-09T19:58:02.052Z,68.90
2023-04-09T20:00:31.496Z,68.80
2023-04-09T20:03:04.173Z,68.60
2023-04-09T20:05:37.462Z,69.10
2023-04-09T20:08:13.549Z,68.80
2023-04-09T20:10:48.731Z,69.80
2023-04-09T20:13:18.918Z,70.10
2023-04-09T20:15:50.059Z,69.60
2023-04-09T20:18:22.711Z,69.20
2023-04-09T20:20:52.889Z,68.90
2023-04-09T20:23:25.833Z,68.90
2023-04-09T20:26:01.071Z,69.20
2023-04-09T20:28:32.594Z,68.80
2023-04-09T20:31:08.078Z,68.40
2023-04-09T20:33:39.328Z,68.00
2023-04-09T20:36:19.055Z,68.00
2023-04-09T20:38:52.272Z,68.00
2023-04-09T20:41:22.309Z,68.40
2023-04-09T20:43:54.203Z,68.70
2023-04-09T20:46:25.521Z,68.30
2023-04-09T20:48:59.219Z,68.20
2023-04-09T20:51:31.338Z,68.10
2023-04-09T20:54:04.868Z,67.70
2023-04-09T20:56:34.599Z,68.40
2023-04-09T20:59:06.579Z,68.50
2023-04-09T21:01:38.238Z,68.70
2023-04-09T21:04:11.417Z,68.50
2023-04-09T21:06:41.464Z,68.40
2023-04-09T21:09:11.518Z,68.10
2023-04-09T21:11:41.124Z,68.30
2023-04-09T21:14:13.645Z,67.70
2023-04-09T21:16:42.821Z,68.00
2023-04-09T21:19:13.606Z,67.40
2023-04-09T21:21:42.794Z,67.60
2023-04-09T21:24:13.669Z,67.30
2023-04-09T21:29:18.617Z,67.10
2023-04-09T21:31:53.889Z,67.40
2023-04-09T21:34:25.592Z,67.50
2023-04-09T21:36:58.826Z,67.30
2023-04-09T21:39:28.794Z,67.20
2023-04-09T21:41:59.368Z,67.30
2023-04-09T21:44:30.811Z,67.10
2023-04-09T21:47:01.702Z,67.20
2023-04-09T21:49:30.319Z,67.00
2023-04-09T21:52:02.636Z,67.00
2023-04-09T21:54:33.929Z,67.00
2023-04-09T21:57:02.762Z,66.90
2023-04-09T21:59:31.847Z,66.70
2023-04-09T22:02:01.451Z,66.70
2023-04-09T22:04:29.867Z,66.70
2023-04-09T22:06:59.073Z,66.70
2023-04-09T22:09:29.630Z,66.40
2023-04-09T22:11:58.473Z,66.50
2023-04-09T22:14:32.727Z,66.20
2023-04-09T22:17:04.141Z,66.40
2023-04-09T22:19:36.631Z,66.20
2023-04-09T22:22:07.592Z,65.60
2023-04-09T22:24:36.480Z,65.80
2023-04-09T22:27:09.021Z,66.00
2023-04-09T22:29:39.666Z,65.90
2023-04-09T22:32:17.468Z,65.90
2023-04-09T22:34:47.871Z,65.70
2023-04-09T22:37:19.414Z,65.60
2023-04-09T22:39:51.512Z,65.70
2023-04-09T22:42:23.406Z,65.90
2023-04-09T22:45:02.252Z,66.20
2023-04-09T22:47:33.813Z,66.20
2023-04-09T22:50:03.686Z,66.00
2023-04-09T22:52:30.713Z,65.80
2023-04-09T22:55:04.927Z,66.10
2023-04-09T22:57:36.666Z,66.10
2023-04-09T23:00:05.075Z,66.00
2023-04-09T23:02:35.204Z,66.00
2023-04-09T23:05:06.342Z,66.20
2023-04-09T23:07:36.332Z,66.20
2023-04-09T23:10:05.136Z,66.00
2023-04-09T23:12:34.144Z,66.10
2023-04-09T23:15:04.800Z,66.00
2023-04-09T23:17:37.589Z,66.10
2023-04-09T23:20:09.054Z,66.00
2023-04-09T23:22:38.529Z,66.00
2023-04-09T23:25:13.189Z,65.80
2023-04-09T23:27:42.328Z,65.90
2023-04-09T23:30:10.883Z,65.90
2023-04-09T23:32:42.319Z,65.80
2023-04-09T23:35:11.917Z,65.70
2023-04-09T23:37:41.498Z,65.60
2023-04-09T23:40:17.331Z,65.90
2023-04-09T23:42:52.533Z,65.60
2023-04-09T23:45:33.749Z,65.70
2023-04-09T23:48:03.948Z,65.60
2023-04-09T23:50:35.859Z,65.80
2023-04-09T23:53:07.374Z,65.80
2023-04-09T23:55:41.117Z,65.80
2023-04-09T23:58:16.164Z,65.90
